sensor_id;sensor_type;location;lat;lon;timestamp;pressure;altitude;pressure_sealevel;temperature;humidity
57376;BME280;44805;45.048;5.062;2023-04-09T00:00:18;100080.56;;;10.56;65.57
57376;BME280;44805;45.048;5.062;2023-04-09T00:02:43;100071.56;;;10.49;66.81
57376;BME280;44805;45.048;5.062;2023-04-09T00:05:08;100075.72;;;10.52;65.68
57376;BME280;44805;45.048;5.062;2023-04-09T00:07:34;100069.63;;;10.51;66.72
57376;BME280;44805;45.048;5.062;2023-04-09T00:09:59;100070.44;;;10.52;66.86
57376;BME280;44805;45.048;5.062;2023-04-09T00:12:24;100067.13;;;10.30;68.02
57376;BME280;44805;45.048;5.062;2023-04-09T00:14:50;100073.66;;;10.36;67.02
57376;BME280;44805;45.048;5.062;2023-04-09T00:17:15;100065.72;;;10.26;67.67
57376;BME280;44805;45.048;5.062;2023-04-09T00:19:41;100070.97;;;10.16;68.88
57376;BME280;44805;45.048;5.062;2023-04-09T00:22:06;100063.50;;;10.21;68.44
57376;BME280;44805;45.048;5.062;2023-04-09T00:24:31;100077.75;;;10.09;68.14
57376;BME280;44805;45.048;5.062;2023-04-09T00:27:01;100075.66;;;10.22;68.64
57376;BME280;44805;45.048;5.062;2023-04-09T00:29:27;100061.00;;;10.20;67.99
57376;BME280;44805;45.048;5.062;2023-04-09T00:31:52;100068.75;;;10.21;68.42
57376;BME280;44805;45.048;5.062;2023-04-09T00:34:17;100073.47;;;10.18;68.36
57376;BME280;44805;45.048;5.062;2023-04-09T00:36:43;100065.72;;;10.16;68.92
57376;BME280;44805;45.048;5.062;2023-04-09T00:39:08;100064.31;;;10.12;67.61
57376;BME280;44805;45.048;5.062;2023-04-09T00:41:33;100063.78;;;10.18;68.14
57376;BME280;44805;45.048;5.062;2023-04-09T00:43:58;100067.09;;;10.11;68.93
57376;BME280;44805;45.048;5.062;2023-04-09T00:46:24;100058.78;;;10.15;68.43
57376;BME280;44805;45.048;5.062;2023-04-09T00:48:49;100064.44;;;10.01;68.55
57376;BME280;44805;45.048;5.062;2023-04-09T00:51:15;100063.63;;;10.10;67.95
57376;BME280;44805;45.048;5.062;2023-04-09T00:53:40;100062.38;;;9.95;69.53
57376;BME280;44805;45.048;5.062;2023-04-09T00:56:07;100062.09;;;9.98;69.45
57376;BME280;44805;45.048;5.062;2023-04-09T00:58:34;100061.69;;;9.93;68.56
57376;BME280;44805;45.048;5.062;2023-04-09T01:01:00;100059.56;;;9.87;69.59
57376;BME280;44805;45.048;5.062;2023-04-09T01:03:25;100056.53;;;9.72;70.72
57376;BME280;44805;45.048;5.062;2023-04-09T01:11:05;100063.75;;;9.80;69.95
57376;BME280;44805;45.048;5.062;2023-04-09T01:13:38;100065.09;;;9.74;70.20
57376;BME280;44805;45.048;5.062;2023-04-09T01:16:04;100052.09;;;9.72;69.86
57376;BME280;44805;45.048;5.062;2023-04-09T01:18:33;100056.34;;;9.64;70.31
57376;BME280;44805;45.048;5.062;2023-04-09T01:21:01;100052.22;;;9.71;69.56
57376;BME280;44805;45.048;5.062;2023-04-09T01:28:32;100040.44;;;9.65;69.70
57376;BME280;44805;45.048;5.062;2023-04-09T01:31:17;100044.16;;;9.53;70.68
57376;BME280;44805;45.048;5.062;2023-04-09T01:33:44;100042.06;;;9.56;71.45
57376;BME280;44805;45.048;5.062;2023-04-09T01:36:09;100044.84;;;9.55;70.88
57376;BME280;44805;45.048;5.062;2023-04-09T01:38:36;100051.06;;;9.54;70.27
57376;BME280;44805;45.048;5.062;2023-04-09T01:41:03;100050.06;;;9.45;71.45
57376;BME280;44805;45.048;5.062;2023-04-09T01:43:29;100053.91;;;9.41;70.63
57376;BME280;44805;45.048;5.062;2023-04-09T01:45:55;100056.75;;;9.49;70.14
57376;BME280;44805;45.048;5.062;2023-04-09T01:48:22;100051.06;;;9.54;70.23
57376;BME280;44805;45.048;5.062;2023-04-09T01:50:48;100048.53;;;9.43;71.16
57376;BME280;44805;45.048;5.062;2023-04-09T01:53:14;100054.03;;;9.30;70.80
57376;BME280;44805;45.048;5.062;2023-04-09T01:55:40;100050.66;;;9.18;71.60
57376;BME280;44805;45.048;5.062;2023-04-09T01:58:05;100052.06;;;9.22;72.24
57376;BME280;44805;45.048;5.062;2023-04-09T02:00:33;100054.97;;;9.19;71.83
57376;BME280;44805;45.048;5.062;2023-04-09T02:03:07;100062.69;;;9.11;73.18
57376;BME280;44805;45.048;5.062;2023-04-09T02:05:35;100054.13;;;9.19;73.02
57376;BME280;44805;45.048;5.062;2023-04-09T02:08:01;100057.44;;;9.11;72.68
57376;BME280;44805;45.048;5.062;2023-04-09T02:10:29;100058.03;;;8.94;73.83
57376;BME280;44805;45.048;5.062;2023-04-09T02:12:55;100052.25;;;9.00;72.18
57376;BME280;44805;45.048;5.062;2023-04-09T02:15:22;100046.81;;;8.91;73.61
57376;BME280;44805;45.048;5.062;2023-04-09T02:17:48;100055.72;;;8.79;74.24
57376;BME280;44805;45.048;5.062;2023-04-09T02:20:17;100046.81;;;8.91;73.70
57376;BME280;44805;45.048;5.062;2023-04-09T02:22:42;100052.53;;;8.76;73.97
57376;BME280;44805;45.048;5.062;2023-04-09T02:25:08;100055.97;;;8.76;74.50
57376;BME280;44805;45.048;5.062;2023-04-09T02:27:33;100058.72;;;8.75;73.38
57376;BME280;44805;45.048;5.062;2023-04-09T02:29:58;100054.56;;;8.72;74.04
57376;BME280;44805;45.048;5.062;2023-04-09T02:32:24;100064.88;;;8.64;74.46
57376;BME280;44805;45.048;5.062;2023-04-09T02:34:49;100067.31;;;8.56;74.62
57376;BME280;44805;45.048;5.062;2023-04-09T02:37:14;100069.31;;;8.63;74.25
57376;BME280;44805;45.048;5.062;2023-04-09T02:39:40;100067.44;;;8.54;74.92
57376;BME280;44805;45.048;5.062;2023-04-09T02:42:05;100071.84;;;8.54;75.43
57376;BME280;44805;45.048;5.062;2023-04-09T02:44:31;100076.66;;;8.48;75.15
57376;BME280;44805;45.048;5.062;2023-04-09T02:46:57;100078.53;;;8.58;75.43
57376;BME280;44805;45.048;5.062;2023-04-09T02:49:22;100080.28;;;8.57;74.27
57376;BME280;44805;45.048;5.062;2023-04-09T02:51:47;100074.03;;;8.48;74.58
57376;BME280;44805;45.048;5.062;2023-04-09T02:54:12;100079.53;;;8.34;75.68
57376;BME280;44805;45.048;5.062;2023-04-09T02:56:38;100076.53;;;8.39;74.47
57376;BME280;44805;45.048;5.062;2023-04-09T02:59:03;100075.00;;;8.36;74.60
57376;BME280;44805;45.048;5.062;2023-04-09T03:01:28;100074.06;;;8.37;75.09
57376;BME280;44805;45.048;5.062;2023-04-09T03:03:54;100070.72;;;8.35;75.45
57376;BME280;44805;45.048;5.062;2023-04-09T03:06:19;100078.88;;;8.21;75.67
57376;BME280;44805;45.048;5.062;2023-04-09T03:08:44;100072.47;;;8.14;77.07
57376;BME280;44805;45.048;5.062;2023-04-09T03:11:10;100073.69;;;7.98;77.60
57376;BME280;44805;45.048;5.062;2023-04-09T03:13:35;100073.88;;;8.18;76.87
57376;BME280;44805;45.048;5.062;2023-04-09T03:16:00;100075.78;;;8.27;76.07
57376;BME280;44805;45.048;5.062;2023-04-09T03:18:25;100065.00;;;8.09;77.47
57376;BME280;44805;45.048;5.062;2023-04-09T03:20:51;100064.13;;;8.09;77.22
57376;BME280;44805;45.048;5.062;2023-04-09T03:23:16;100073.81;;;8.08;76.90
57376;BME280;44805;45.048;5.062;2023-04-09T03:25:42;100064.03;;;8.10;77.49
57376;BME280;44805;45.048;5.062;2023-04-09T03:28:07;100069.53;;;8.07;78.11
57376;BME280;44805;45.048;5.062;2023-04-09T03:30:32;100065.63;;;8.01;78.41
57376;BME280;44805;45.048;5.062;2023-04-09T03:32:57;100057.03;;;7.88;79.09
57376;BME280;44805;45.048;5.062;2023-04-09T03:35:23;100060.28;;;7.92;78.18
57376;BME280;44805;45.048;5.062;2023-04-09T03:37:48;100060.38;;;7.90;78.92
57376;BME280;44805;45.048;5.062;2023-04-09T03:40:14;100054.00;;;7.72;78.46
57376;BME280;44805;45.048;5.062;2023-04-09T03:42:41;100056.63;;;7.72;78.84
57376;BME280;44805;45.048;5.062;2023-04-09T03:45:06;100056.75;;;7.59;79.43
57376;BME280;44805;45.048;5.062;2023-04-09T03:47:32;100057.56;;;7.71;79.39
57376;BME280;44805;45.048;5.062;2023-04-09T03:49:57;100059.34;;;7.70;78.93
57376;BME280;44805;45.048;5.062;2023-04-09T03:52:22;100063.78;;;7.70;79.35
57376;BME280;44805;45.048;5.062;2023-04-09T03:54:48;100060.69;;;7.65;79.61
57376;BME280;44805;45.048;5.062;2023-04-09T03:57:13;100058.28;;;7.73;78.48
57376;BME280;44805;45.048;5.062;2023-04-09T03:59:38;100059.50;;;7.57;78.60
57376;BME280;44805;45.048;5.062;2023-04-09T04:02:03;100057.56;;;7.71;78.46
57376;BME280;44805;45.048;5.062;2023-04-09T04:04:29;100058.78;;;7.67;79.04
57376;BME280;44805;45.048;5.062;2023-04-09T04:06:54;100059.03;;;7.64;78.77
57376;BME280;44805;45.048;5.062;2023-04-09T04:09:20;100059.25;;;7.60;79.59
57376;BME280;44805;45.048;5.062;2023-04-09T04:11:45;100061.91;;;7.49;79.39
57376;BME280;44805;45.048;5.062;2023-04-09T04:14:11;100062.13;;;7.46;79.32
57376;BME280;44805;45.048;5.062;2023-04-09T04:16:36;100065.47;;;7.48;79.32
57376;BME280;44805;45.048;5.062;2023-04-09T04:19:01;100075.34;;;7.45;79.13
57376;BME280;44805;45.048;5.062;2023-04-09T04:21:26;100079.06;;;7.53;79.71
57376;BME280;44805;45.048;5.062;2023-04-09T04:23:52;100081.66;;;7.42;79.78
57376;BME280;44805;45.048;5.062;2023-04-09T04:26:17;100082.16;;;7.36;79.48
57376;BME280;44805;45.048;5.062;2023-04-09T04:28:42;100079.53;;;7.36;80.03
57376;BME280;44805;45.048;5.062;2023-04-09T04:31:08;100087.84;;;7.30;79.69
57376;BME280;44805;45.048;5.062;2023-04-09T04:33:37;100081.66;;;7.20;79.76
57376;BME280;44805;45.048;5.062;2023-04-09T04:36:10;100083.69;;;7.16;80.62
57376;BME280;44805;45.048;5.062;2023-04-09T04:38:36;100092.13;;;7.20;80.29
57376;BME280;44805;45.048;5.062;2023-04-09T04:41:02;100092.03;;;7.10;80.14
57376;BME280;44805;45.048;5.062;2023-04-09T04:43:27;100086.91;;;7.08;80.45
57376;BME280;44805;45.048;5.062;2023-04-09T04:45:52;100090.78;;;6.91;81.25
57376;BME280;44805;45.048;5.062;2023-04-09T04:48:17;100099.59;;;7.02;80.74
57376;BME280;44805;45.048;5.062;2023-04-09T04:50:43;100095.22;;;7.02;81.21
57376;BME280;44805;45.048;5.062;2023-04-09T04:53:09;100095.00;;;7.05;80.94
57376;BME280;44805;45.048;5.062;2023-04-09T04:55:34;100085.34;;;7.17;80.41
57376;BME280;44805;45.048;5.062;2023-04-09T04:58:00;100097.94;;;7.01;80.89
57376;BME280;44805;45.048;5.062;2023-04-09T05:00:25;100084.47;;;6.83;81.64
57376;BME280;44805;45.048;5.062;2023-04-09T05:02:50;100101.13;;;6.82;82.19
57376;BME280;44805;45.048;5.062;2023-04-09T05:05:16;100098.72;;;6.79;82.04
57376;BME280;44805;45.048;5.062;2023-04-09T05:07:41;100105.53;;;6.81;81.70
57376;BME280;44805;45.048;5.062;2023-04-09T05:10:06;100099.13;;;6.85;81.51
57376;BME280;44805;45.048;5.062;2023-04-09T05:12:32;100097.06;;;6.78;82.17
57376;BME280;44805;45.048;5.062;2023-04-09T05:14:57;100097.72;;;6.92;81.09
57376;BME280;44805;45.048;5.062;2023-04-09T05:17:23;100102.91;;;6.81;81.59
57376;BME280;44805;45.048;5.062;2023-04-09T05:19:51;100110.03;;;6.79;81.90
57376;BME280;44805;45.048;5.062;2023-04-09T05:22:17;100103.38;;;6.75;82.38
57376;BME280;44805;45.048;5.062;2023-04-09T05:24:42;100107.00;;;6.61;82.69
57376;BME280;44805;45.048;5.062;2023-04-09T05:27:07;100108.94;;;6.70;82.21
57376;BME280;44805;45.048;5.062;2023-04-09T05:29:33;100105.25;;;6.73;82.03
57376;BME280;44805;45.048;5.062;2023-04-09T05:31:58;100109.06;;;6.69;82.02
57376;BME280;44805;45.048;5.062;2023-04-09T05:34:23;100112.88;;;6.65;82.60
57376;BME280;44805;45.048;5.062;2023-04-09T05:36:48;100112.41;;;6.71;82.75
57376;BME280;44805;45.048;5.062;2023-04-09T05:39:14;100102.81;;;6.94;81.79
57376;BME280;44805;45.048;5.062;2023-04-09T05:41:39;100101.16;;;6.93;81.65
57376;BME280;44805;45.048;5.062;2023-04-09T05:44:05;100111.50;;;6.94;81.67
57376;BME280;44805;45.048;5.062;2023-04-09T05:46:31;100107.06;;;6.84;81.66
57376;BME280;44805;45.048;5.062;2023-04-09T05:48:56;100108.78;;;6.96;81.54
57376;BME280;44805;45.048;5.062;2023-04-09T05:51:21;100112.13;;;6.98;81.23
57376;BME280;44805;45.048;5.062;2023-04-09T05:53:46;100106.06;;;6.98;81.49
57376;BME280;44805;45.048;5.062;2023-04-09T05:56:15;100113.53;;;6.91;82.19
57376;BME280;44805;45.048;5.062;2023-04-09T05:58:40;100113.81;;;7.10;81.35
57376;BME280;44805;45.048;5.062;2023-04-09T06:01:05;100111.44;;;7.18;80.81
57376;BME280;44805;45.048;5.062;2023-04-09T06:03:31;100116.44;;;7.33;80.17
57376;BME280;44805;45.048;5.062;2023-04-09T06:05:56;100121.78;;;7.43;79.51
57376;BME280;44805;45.048;5.062;2023-04-09T06:08:21;100120.00;;;7.32;80.45
57376;BME280;44805;45.048;5.062;2023-04-09T06:10:47;100116.94;;;7.38;80.32
57376;BME280;44805;45.048;5.062;2023-04-09T06:13:12;100127.16;;;7.64;80.09
57376;BME280;44805;45.048;5.062;2023-04-09T06:15:37;100130.13;;;7.70;79.83
57376;BME280;44805;45.048;5.062;2023-04-09T06:18:03;100134.50;;;7.81;79.44
57376;BME280;44805;45.048;5.062;2023-04-09T06:20:28;100131.88;;;7.92;78.13
57376;BME280;44805;45.048;5.062;2023-04-09T06:22:53;100138.56;;;7.96;78.14
57376;BME280;44805;45.048;5.062;2023-04-09T06:25:19;100140.22;;;7.97;78.83
57376;BME280;44805;45.048;5.062;2023-04-09T06:27:44;100140.59;;;7.93;79.08
57376;BME280;44805;45.048;5.062;2023-04-09T06:30:09;100129.69;;;8.09;78.08
57376;BME280;44805;45.048;5.062;2023-04-09T06:32:35;100141.72;;;8.11;78.73
57376;BME280;44805;45.048;5.062;2023-04-09T06:35:00;100144.66;;;8.29;78.74
57376;BME280;44805;45.048;5.062;2023-04-09T06:37:25;100140.19;;;8.52;77.89
57376;BME280;44805;45.048;5.062;2023-04-09T06:39:50;100145.41;;;8.42;77.95
57376;BME280;44805;45.048;5.062;2023-04-09T06:42:16;100150.59;;;8.54;76.89
57376;BME280;44805;45.048;5.062;2023-04-09T06:44:41;100144.16;;;8.58;77.92
57376;BME280;44805;45.048;5.062;2023-04-09T06:47:06;100151.41;;;8.86;77.57
57376;BME280;44805;45.048;5.062;2023-04-09T06:49:32;100152.31;;;8.97;76.23
57376;BME280;44805;45.048;5.062;2023-04-09T06:51:58;100152.00;;;9.11;76.91
57376;BME280;44805;45.048;5.062;2023-04-09T06:54:23;100152.88;;;9.21;77.08
57376;BME280;44805;45.048;5.062;2023-04-09T06:56:48;100154.00;;;9.28;76.88
57376;BME280;44805;45.048;5.062;2023-04-09T06:59:13;100155.16;;;9.35;76.37
57376;BME280;44805;45.048;5.062;2023-04-09T07:01:40;100161.75;;;9.30;75.41
57376;BME280;44805;45.048;5.062;2023-04-09T07:04:05;100162.16;;;9.56;75.36
57376;BME280;44805;45.048;5.062;2023-04-09T07:06:31;100163.47;;;9.71;74.55
57376;BME280;44805;45.048;5.062;2023-04-09T07:08:56;100160.38;;;9.87;73.00
57376;BME280;44805;45.048;5.062;2023-04-09T07:11:21;100169.78;;;9.90;74.21
57376;BME280;44805;45.048;5.062;2023-04-09T07:13:47;100172.84;;;9.95;73.24
57376;BME280;44805;45.048;5.062;2023-04-09T07:16:12;100174.81;;;10.03;73.30
57376;BME280;44805;45.048;5.062;2023-04-09T07:18:37;100165.81;;;10.15;72.42
57376;BME280;44805;45.048;5.062;2023-04-09T07:21:03;100166.66;;;10.25;71.76
57376;BME280;44805;45.048;5.062;2023-04-09T07:23:28;100170.47;;;10.32;70.60
57376;BME280;44805;45.048;5.062;2023-04-09T07:25:53;100166.59;;;10.36;70.54
57376;BME280;44805;45.048;5.062;2023-04-09T07:28:18;100163.56;;;10.41;71.06
57376;BME280;44805;45.048;5.062;2023-04-09T07:30:44;100174.94;;;10.51;70.67
57376;BME280;44805;45.048;5.062;2023-04-09T07:33:10;100174.38;;;10.67;68.17
57376;BME280;44805;45.048;5.062;2023-04-09T07:35:36;100174.94;;;10.80;69.56
57376;BME280;44805;45.048;5.062;2023-04-09T07:38:01;100180.19;;;10.80;69.57
57376;BME280;44805;45.048;5.062;2023-04-09T07:40:27;100177.44;;;10.82;68.53
57376;BME280;44805;45.048;5.062;2023-04-09T07:42:52;100171.31;;;11.01;67.15
57376;BME280;44805;45.048;5.062;2023-04-09T07:45:18;100176.28;;;11.04;67.21
57376;BME280;44805;45.048;5.062;2023-04-09T07:47:43;100173.41;;;10.88;67.99
57376;BME280;44805;45.048;5.062;2023-04-09T07:50:09;100187.94;;;11.11;68.14
57376;BME280;44805;45.048;5.062;2023-04-09T07:52:34;100185.56;;;11.18;67.04
57376;BME280;44805;45.048;5.062;2023-04-09T07:55:00;100190.97;;;11.26;66.92
57376;BME280;44805;45.048;5.062;2023-04-09T07:57:25;100185.69;;;11.26;66.31
57376;BME280;44805;45.048;5.062;2023-04-09T07:59:51;100189.94;;;11.46;65.39
57376;BME280;44805;45.048;5.062;2023-04-09T08:02:17;100188.94;;;11.57;65.28
57376;BME280;44805;45.048;5.062;2023-04-09T08:04:42;100183.34;;;11.70;64.17
57376;BME280;44805;45.048;5.062;2023-04-09T08:07:08;100186.91;;;11.88;64.02
57376;BME280;44805;45.048;5.062;2023-04-09T08:09:33;100192.44;;;11.95;62.92
57376;BME280;44805;45.048;5.062;2023-04-09T08:11:58;100182.97;;;12.02;62.70
57376;BME280;44805;45.048;5.062;2023-04-09T08:14:23;100186.66;;;12.09;63.34
57376;BME280;44805;45.048;5.062;2023-04-09T08:16:49;100187.28;;;12.21;62.40
57376;BME280;44805;45.048;5.062;2023-04-09T08:19:15;100189.44;;;12.35;62.19
57376;BME280;44805;45.048;5.062;2023-04-09T08:21:41;100178.88;;;12.35;61.03
57376;BME280;44805;45.048;5.062;2023-04-09T08:24:12;100185.53;;;12.40;61.96
57376;BME280;44805;45.048;5.062;2023-04-09T08:26:38;100188.53;;;12.45;62.15
57376;BME280;44805;45.048;5.062;2023-04-09T08:29:04;100186.34;;;12.58;61.55
57376;BME280;44805;45.048;5.062;2023-04-09T08:31:29;100190.19;;;12.64;60.63
57376;BME280;44805;45.048;5.062;2023-04-09T08:33:55;100185.53;;;12.75;59.71
57376;BME280;44805;45.048;5.062;2023-04-09T08:36:20;100188.25;;;12.84;59.37
57376;BME280;44805;45.048;5.062;2023-04-09T08:38:45;100183.06;;;13.00;59.26
57376;BME280;44805;45.048;5.062;2023-04-09T08:41:21;100186.63;;;13.09;57.93
57376;BME280;44805;45.048;5.062;2023-04-09T08:43:48;100188.72;;;13.05;59.01
57376;BME280;44805;45.048;5.062;2023-04-09T08:46:14;100189.28;;;13.09;57.95
57376;BME280;44805;45.048;5.062;2023-04-09T08:48:42;100195.66;;;13.24;58.30
57376;BME280;44805;45.048;5.062;2023-04-09T08:51:07;100194.25;;;13.30;57.70
57376;BME280;44805;45.048;5.062;2023-04-09T08:53:33;100188.78;;;13.57;56.25
57376;BME280;44805;45.048;5.062;2023-04-09T08:55:59;100186.19;;;13.65;57.32
57376;BME280;44805;45.048;5.062;2023-04-09T08:58:25;100187.28;;;13.89;56.88
57376;BME280;44805;45.048;5.062;2023-04-09T09:00:50;100194.81;;;14.02;57.26
57376;BME280;44805;45.048;5.062;2023-04-09T09:03:15;100190.59;;;14.25;56.44
57376;BME280;44805;45.048;5.062;2023-04-09T09:05:42;100190.59;;;14.42;55.65
57376;BME280;44805;45.048;5.062;2023-04-09T09:08:08;100185.78;;;14.29;55.74
57376;BME280;44805;45.048;5.062;2023-04-09T09:10:38;100184.81;;;14.38;55.57
57376;BME280;44805;45.048;5.062;2023-04-09T09:13:37;100186.41;;;14.73;54.12
57376;BME280;44805;45.048;5.062;2023-04-09T09:16:10;100192.25;;;14.34;54.86
57376;BME280;44805;45.048;5.062;2023-04-09T09:18:37;100192.53;;;14.66;52.86
57376;BME280;44805;45.048;5.062;2023-04-09T09:21:12;100200.47;;;14.90;53.55
57376;BME280;44805;45.048;5.062;2023-04-09T09:23:38;100185.56;;;14.89;52.50
57376;BME280;44805;45.048;5.062;2023-04-09T09:26:14;100192.53;;;14.90;53.30
57376;BME280;44805;45.048;5.062;2023-04-09T09:28:40;100197.19;;;15.05;52.29
57376;BME280;44805;45.048;5.062;2023-04-09T09:31:09;100192.84;;;14.95;52.11
57376;BME280;44805;45.048;5.062;2023-04-09T09:33:35;100192.34;;;15.08;52.86
57376;BME280;44805;45.048;5.062;2023-04-09T09:36:00;100188.53;;;15.11;51.72
57376;BME280;44805;45.048;5.062;2023-04-09T09:38:31;100184.06;;;15.03;51.21
57376;BME280;44805;45.048;5.062;2023-04-09T09:40:56;100185.41;;;14.66;53.26
57376;BME280;44805;45.048;5.062;2023-04-09T09:43:22;100183.56;;;14.75;53.45
57376;BME280;44805;45.048;5.062;2023-04-09T09:45:48;100182.59;;;15.09;53.20
57376;BME280;44805;45.048;5.062;2023-04-09T09:48:13;100179.41;;;15.13;51.58
57376;BME280;44805;45.048;5.062;2023-04-09T09:50:39;100175.91;;;15.46;52.40
57376;BME280;44805;45.048;5.062;2023-04-09T09:53:08;100177.59;;;15.22;51.92
57376;BME280;44805;45.048;5.062;2023-04-09T09:55:35;100174.91;;;15.38;51.83
57376;BME280;44805;45.048;5.062;2023-04-09T09:58:07;100173.22;;;15.54;51.22
57376;BME280;44805;45.048;5.062;2023-04-09T10:00:36;100172.31;;;15.22;51.44
57376;BME280;44805;45.048;5.062;2023-04-09T10:03:06;100171.66;;;14.87;51.99
57376;BME280;44805;45.048;5.062;2023-04-09T10:05:34;100164.44;;;15.53;51.51
57376;BME280;44805;45.048;5.062;2023-04-09T10:08:02;100160.56;;;15.80;50.58
57376;BME280;44805;45.048;5.062;2023-04-09T10:10:28;100157.47;;;16.08;50.08
57376;BME280;44805;45.048;5.062;2023-04-09T10:12:55;100158.63;;;16.05;49.35
57376;BME280;44805;45.048;5.062;2023-04-09T10:15:21;100155.72;;;16.23;49.00
57376;BME280;44805;45.048;5.062;2023-04-09T10:17:46;100148.69;;;16.31;49.23
57376;BME280;44805;45.048;5.062;2023-04-09T10:22:50;100144.75;;;16.49;49.49
57376;BME280;44805;45.048;5.062;2023-04-09T10:25:16;100143.63;;;16.44;49.04
57376;BME280;44805;45.048;5.062;2023-04-09T10:27:42;100145.47;;;16.66;48.56
57376;BME280;44805;45.048;5.062;2023-04-09T10:30:32;100133.09;;;16.50;49.15
57376;BME280;44805;45.048;5.062;2023-04-09T10:33:07;100126.03;;;17.04;48.61
57376;BME280;44805;45.048;5.062;2023-04-09T10:35:33;100124.56;;;17.01;47.09
57376;BME280;44805;45.048;5.062;2023-04-09T10:37:58;100126.44;;;16.78;47.37
57376;BME280;44805;45.048;5.062;2023-04-09T10:40:24;100119.22;;;16.63;47.51
57376;BME280;44805;45.048;5.062;2023-04-09T10:42:51;100111.84;;;17.11;47.74
57376;BME280;44805;45.048;5.062;2023-04-09T10:45:18;100112.03;;;17.10;46.71
57376;BME280;44805;45.048;5.062;2023-04-09T10:47:46;100100.44;;;16.88;46.60
57376;BME280;44805;45.048;5.062;2023-04-09T10:50:20;100103.56;;;17.06;46.88
57376;BME280;44805;45.048;5.062;2023-04-09T10:52:47;100103.78;;;17.49;46.46
57376;BME280;44805;45.048;5.062;2023-04-09T10:55:29;100095.59;;;17.51;45.22
57376;BME280;44805;45.048;5.062;2023-04-09T10:57:58;100098.72;;;17.54;45.01
57376;BME280;44805;45.048;5.062;2023-04-09T11:00:23;100088.34;;;17.60;45.41
57376;BME280;44805;45.048;5.062;2023-04-09T11:05:32;100086.41;;;17.68;45.72
57376;BME280;44805;45.048;5.062;2023-04-09T11:08:02;100093.91;;;17.94;45.54
57376;BME280;44805;45.048;5.062;2023-04-09T11:10:28;100085.63;;;18.04;45.82
57376;BME280;44805;45.048;5.062;2023-04-09T11:13:03;100083.91;;;17.96;44.58
57376;BME280;44805;45.048;5.062;2023-04-09T11:15:28;100075.81;;;17.75;44.59
57376;BME280;44805;45.048;5.062;2023-04-09T11:17:54;100076.75;;;17.82;44.75
57376;BME280;44805;45.048;5.062;2023-04-09T11:20:21;100073.81;;;17.77;44.34
57376;BME280;44805;45.048;5.062;2023-04-09T11:22:50;100024.31;;;17.17;44.23
57376;BME280;44805;45.048;5.062;2023-04-09T11:25:19;100073.06;;;17.83;43.99
57376;BME280;44805;45.048;5.062;2023-04-09T11:27:45;100069.25;;;17.71;44.32
57376;BME280;44805;45.048;5.062;2023-04-09T11:30:11;100066.72;;;17.99;43.62
57376;BME280;44805;45.048;5.062;2023-04-09T11:32:36;100055.03;;;18.21;43.60
57376;BME280;44805;45.048;5.062;2023-04-09T11:35:01;100053.56;;;18.40;42.77
57376;BME280;44805;45.048;5.062;2023-04-09T11:37:27;100052.19;;;18.44;42.38
57376;BME280;44805;45.048;5.062;2023-04-09T11:39:53;100049.53;;;18.44;43.23
57376;BME280;44805;45.048;5.062;2023-04-09T11:42:19;100051.50;;;18.64;42.76
57376;BME280;44805;45.048;5.062;2023-04-09T11:44:58;100046.66;;;18.96;42.04
57376;BME280;44805;45.048;5.062;2023-04-09T11:47:24;100045.47;;;18.77;41.62
57376;BME280;44805;45.048;5.062;2023-04-09T11:49:50;100035.03;;;18.75;41.21
57376;BME280;44805;45.048;5.062;2023-04-09T11:52:15;100031.31;;;18.76;40.32
57376;BME280;44805;45.048;5.062;2023-04-09T11:54:41;100030.63;;;18.96;40.97
57376;BME280;44805;45.048;5.062;2023-04-09T11:57:06;100025.66;;;18.93;40.00
57376;BME280;44805;45.048;5.062;2023-04-09T11:59:37;100020.78;;;18.96;40.75
57376;BME280;44805;45.048;5.062;2023-04-09T12:02:04;100022.88;;;19.01;40.84
57376;BME280;44805;45.048;5.062;2023-04-09T12:04:30;100015.75;;;19.15;40.75
57376;BME280;44805;45.048;5.062;2023-04-09T12:06:56;100021.53;;;19.25;39.85
57376;BME280;44805;45.048;5.062;2023-04-09T12:09:22;100021.00;;;19.36;39.38
57376;BME280;44805;45.048;5.062;2023-04-09T12:11:48;100012.31;;;19.27;40.95
57376;BME280;44805;45.048;5.062;2023-04-09T12:17:09;100025.00;;;19.19;41.28
57376;BME280;44805;45.048;5.062;2023-04-09T12:19:37;100025.38;;;19.09;40.58
57376;BME280;44805;45.048;5.062;2023-04-09T12:22:03;100018.69;;;18.92;40.12
57376;BME280;44805;45.048;5.062;2023-04-09T12:24:28;100020.25;;;19.14;40.46
57376;BME280;44805;45.048;5.062;2023-04-09T12:26:53;100009.84;;;19.26;39.30
57376;BME280;44805;45.048;5.062;2023-04-09T12:29:21;100010.97;;;19.03;40.23
57376;BME280;44805;45.048;5.062;2023-04-09T12:31:47;100014.75;;;19.22;39.79
57376;BME280;44805;45.048;5.062;2023-04-09T12:34:12;100013.06;;;19.15;39.78
57376;BME280;44805;45.048;5.062;2023-04-09T12:36:38;100020.53;;;19.26;39.99
57376;BME280;44805;45.048;5.062;2023-04-09T12:39:03;100010.94;;;18.97;40.33
57376;BME280;44805;45.048;5.062;2023-04-09T12:41:29;100009.53;;;19.01;39.90
57376;BME280;44805;45.048;5.062;2023-04-09T12:43:54;100005.16;;;18.65;40.12
57376;BME280;44805;45.048;5.062;2023-04-09T12:46:20;100011.84;;;18.82;39.46
57376;BME280;44805;45.048;5.062;2023-04-09T12:48:45;100019.59;;;18.49;40.03
57376;BME280;44805;45.048;5.062;2023-04-09T12:51:11;100015.31;;;18.27;39.66
57376;BME280;44805;45.048;5.062;2023-04-09T12:53:36;100017.53;;;18.44;39.95
57376;BME280;44805;45.048;5.062;2023-04-09T12:56:02;100008.16;;;18.27;39.98
57376;BME280;44805;45.048;5.062;2023-04-09T12:58:27;100009.72;;;18.43;40.33
57376;BME280;44805;45.048;5.062;2023-04-09T13:00:53;100009.03;;;18.34;40.92
57376;BME280;44805;45.048;5.062;2023-04-09T13:03:18;100011.47;;;18.57;39.89
57376;BME280;44805;45.048;5.062;2023-04-09T13:05:44;100002.88;;;18.62;39.10
57376;BME280;44805;45.048;5.062;2023-04-09T13:08:09;100012.94;;;18.88;39.85